Time;durP1;ratioP1;P1;durP2;ratioP2;P2;SDS_P1;SDS_P2;PMS_P1;PMS_P2;Temp;Humidity;BMP_temperature;BMP_pressure;BME280_temperature;BME280_humidity;BME280_pressure;Samples;Min_cycle;Max_cycle;Signal;HPM_P1;HPM_P2
2022/12/14 00:01:14;;;;;;;12.68;6.15;;;-1.80;99.90;;;;;;5009540;28;20049;-71
2022/12/14 00:03:40;;;;;;;8.40;5.85;;;-1.80;99.90;;;;;;4994444;28;20073;-71
2022/12/14 00:06:13;;;;;;;19.80;6.82;;;-1.90;99.90;;;;;;5022302;28;20057;-71
2022/12/14 00:08:39;;;;;;;10.98;6.30;;;-1.90;99.90;;;;;;5005600;28;20046;-72
2022/12/14 00:11:05;;;;;;;13.05;4.75;;;-2.00;99.90;;;;;;4997352;28;20038;-71
2022/12/14 00:13:31;;;;;;;12.85;5.95;;;-2.00;99.90;;;;;;5011060;28;20154;-71
2022/12/14 00:15:57;;;;;;;9.00;5.65;;;-1.90;99.90;;;;;;5025562;28;20082;-71
2022/12/14 00:18:22;;;;;;;8.48;6.05;;;-1.90;99.90;;;;;;5014435;28;20093;-71
2022/12/14 00:20:48;;;;;;;12.80;5.80;;;-2.00;99.90;;;;;;4993044;28;20049;-71
2022/12/14 00:23:13;;;;;;;11.75;7.85;;;-2.00;99.90;;;;;;5013877;28;20076;-71
2022/12/14 00:25:39;;;;;;;11.65;5.55;;;-1.90;99.90;;;;;;5016627;28;20038;-71
2022/12/14 00:28:05;;;;;;;8.90;4.18;;;-2.00;99.90;;;;;;5014169;28;20026;-71
2022/12/14 00:30:30;;;;;;;12.30;5.93;;;-2.00;99.90;;;;;;5021685;28;20049;-71
2022/12/14 00:32:56;;;;;;;12.77;7.25;;;-2.10;99.90;;;;;;5008967;28;20048;-72
2022/12/14 00:35:22;;;;;;;11.02;4.90;;;-2.10;99.90;;;;;;5009955;28;20077;-71
2022/12/14 00:37:48;;;;;;;16.05;8.05;;;-2.10;99.90;;;;;;5009083;28;20511;-72
2022/12/14 00:40:13;;;;;;;8.70;3.53;;;-2.10;99.90;;;;;;4993350;28;20037;-71
2022/12/14 00:42:39;;;;;;;12.40;7.10;;;-2.20;99.90;;;;;;5012916;28;20045;-71
2022/12/14 00:45:06;;;;;;;9.52;7.05;;;-2.10;99.90;;;;;;5029387;28;20468;-72
2022/12/14 00:47:32;;;;;;;10.55;6.03;;;-2.20;99.90;;;;;;5009236;28;20077;-71
2022/12/14 00:49:57;;;;;;;12.82;6.75;;;-2.20;99.90;;;;;;5029188;28;20080;-71
2022/12/14 00:52:23;;;;;;;6.65;5.53;;;-2.20;99.90;;;;;;5014260;28;20045;-72
2022/12/14 00:54:49;;;;;;;6.55;5.03;;;-2.20;99.90;;;;;;5009636;28;20414;-71
2022/12/14 00:57:15;;;;;;;9.80;4.15;;;-2.20;99.90;;;;;;5020762;28;20060;-72
2022/12/14 00:59:40;;;;;;;10.57;5.38;;;-2.20;99.90;;;;;;5011777;28;20088;-71
2022/12/14 01:02:06;;;;;;;8.60;5.65;;;-2.20;99.90;;;;;;5002298;28;20030;-72
2022/12/14 01:04:32;;;;;;;11.27;5.43;;;-2.20;99.90;;;;;;5025486;28;20041;-72
2022/12/14 01:06:57;;;;;;;10.95;5.95;;;-2.20;99.90;;;;;;5023938;28;20629;-72
2022/12/14 01:09:24;;;;;;;17.02;7.28;;;-2.30;99.90;;;;;;5012643;28;20033;-71
2022/12/14 01:11:50;;;;;;;22.40;6.15;;;-2.30;99.90;;;;;;5020786;28;20079;-72
2022/12/14 01:14:18;;;;;;;9.27;5.60;;;-2.30;99.90;;;;;;5011947;28;20634;-72
2022/12/14 01:16:44;;;;;;;13.40;6.05;;;-2.30;99.90;;;;;;5007328;28;20431;-71
2022/12/14 01:19:10;;;;;;;11.40;6.57;;;-2.40;99.90;;;;;;4999779;28;20042;-71
2022/12/14 01:21:36;;;;;;;12.70;6.70;;;-2.40;99.90;;;;;;5003756;28;20132;-71
2022/12/14 01:24:03;;;;;;;16.05;6.63;;;-2.50;99.90;;;;;;5017401;28;20152;-72
2022/12/14 01:26:32;;;;;;;9.05;5.32;;;-2.50;99.90;;;;;;5003460;28;20038;-72
2022/12/14 01:28:58;;;;;;;14.30;5.85;;;-2.50;99.90;;;;;;5017663;28;20483;-72
2022/12/14 01:31:26;;;;;;;12.57;6.32;;;-2.50;99.90;;;;;;4996332;28;20057;-72
2022/12/14 01:33:52;;;;;;;6.63;3.92;;;-2.60;99.90;;;;;;5005342;28;20078;-72
2022/12/14 01:36:24;;;;;;;13.20;6.38;;;-2.60;99.90;;;;;;5023208;28;20042;-72
2022/12/14 01:38:57;;;;;;;6.32;5.30;;;-2.70;99.90;;;;;;4994919;28;20368;-71
2022/12/14 01:41:29;;;;;;;12.70;6.60;;;-2.70;99.90;;;;;;4990889;28;20049;-72
2022/12/14 01:43:58;;;;;;;10.70;4.63;;;-2.70;99.90;;;;;;5009312;28;20510;-72
2022/12/14 01:46:34;;;;;;;7.85;4.82;;;-2.70;99.90;;;;;;5019990;28;20042;-72
2022/12/14 01:49:19;;;;;;;6.97;4.60;;;-2.80;99.90;;;;;;5012405;28;20056;-72
2022/12/14 01:52:24;;;;;;;12.52;3.15;;;-2.80;99.90;;;;;;5022387;28;20083;-71
2022/12/14 01:55:12;;;;;;;9.00;4.28;;;-2.80;99.90;;;;;;5005115;28;20042;-71
2022/12/14 01:57:51;;;;;;;12.13;5.15;;;-2.80;99.90;;;;;;5018542;28;20137;-72
2022/12/14 02:00:17;;;;;;;8.43;3.92;;;-2.80;99.90;;;;;;5015788;28;20402;-72
2022/12/14 02:03:05;;;;;;;16.92;6.10;;;-2.80;99.90;;;;;;5009671;28;20042;-71
2022/12/14 02:05:34;;;;;;;11.35;6.22;;;-2.80;99.90;;;;;;5010120;28;20042;-71
2022/12/14 02:07:59;;;;;;;14.27;6.53;;;-2.70;99.90;;;;;;5023292;28;20049;-71
2022/12/14 02:10:28;;;;;;;8.95;5.05;;;-2.70;99.90;;;;;;5022218;28;20038;-71
2022/12/14 02:13:13;;;;;;;14.07;5.68;;;-2.70;99.90;;;;;;5012534;28;20450;-71
2022/12/14 02:15:40;;;;;;;17.40;6.70;;;-2.70;99.90;;;;;;4992813;28;20045;-71
2022/12/14 02:18:12;;;;;;;10.48;7.22;;;-2.60;99.90;;;;;;5015344;28;20684;-71
2022/12/14 02:21:14;;;;;;;18.60;6.68;;;-2.60;99.90;;;;;;5020073;28;20042;-71
2022/12/14 02:24:17;;;;;;;11.32;5.45;;;-2.60;99.90;;;;;;5017266;28;20065;-72
2022/12/14 02:27:20;;;;;;;6.28;4.93;;;-2.70;99.90;;;;;;5011662;28;20034;-72
2022/12/14 02:30:07;;;;;;;9.32;4.38;;;-2.70;99.90;;;;;;5013413;28;20458;-72
2022/12/14 02:32:45;;;;;;;12.15;5.82;;;-2.70;99.90;;;;;;5004744;28;20042;-71
2022/12/14 02:35:30;;;;;;;14.23;6.05;;;-2.70;99.90;;;;;;5009242;28;20521;-72
2022/12/14 02:38:43;;;;;;;15.23;4.60;;;-2.80;99.90;;;;;;5019539;28;20042;-71
2022/12/14 02:41:37;;;;;;;5.25;3.80;;;-2.90;99.90;;;;;;5017867;28;20045;-69
2022/12/14 02:44:11;;;;;;;5.80;4.10;;;-2.90;99.90;;;;;;5011581;28;20116;-70
2022/12/14 02:46:50;;;;;;;5.80;3.40;;;-3.00;99.90;;;;;;5010521;28;20042;-71
2022/12/14 02:49:35;;;;;;;8.38;3.50;;;-3.00;99.90;;;;;;5026905;28;20419;-71
2022/12/14 02:52:21;;;;;;;8.00;3.38;;;-3.10;99.90;;;;;;5011767;28;20046;-72
2022/12/14 02:54:46;;;;;;;9.70;6.88;;;-3.10;99.90;;;;;;5041494;28;20057;-72
2022/12/14 02:57:20;;;;;;;8.65;4.57;;;-3.10;99.90;;;;;;5004008;28;20045;-72
2022/12/14 02:59:50;;;;;;;8.73;5.60;;;-3.20;99.90;;;;;;5022636;28;20046;-71
2022/12/14 03:02:16;;;;;;;7.53;4.28;;;-3.20;99.90;;;;;;5010677;28;20045;-71
2022/12/14 03:04:46;;;;;;;6.43;3.28;;;-3.20;99.90;;;;;;5004225;28;20045;-71
2022/12/14 03:07:49;;;;;;;10.38;5.50;;;-3.20;99.90;;;;;;5023519;28;20049;-71
2022/12/14 03:10:40;;;;;;;7.05;4.63;;;-3.30;99.90;;;;;;5011108;28;20045;-72
2022/12/14 03:13:23;;;;;;;8.32;3.72;;;-3.40;99.90;;;;;;5019375;28;20054;-71
2022/12/14 03:16:22;;;;;;;9.45;4.65;;;-3.40;99.90;;;;;;5023861;28;20058;-72
2022/12/14 03:18:53;;;;;;;9.65;4.57;;;-3.40;99.90;;;;;;5011493;28;20041;-71
2022/12/14 03:21:26;;;;;;;8.85;4.32;;;-3.40;99.90;;;;;;5016369;28;20277;-71
2022/12/14 03:23:54;;;;;;;16.23;6.97;;;-3.50;99.90;;;;;;5008980;28;20717;-71
2022/12/14 03:26:26;;;;;;;8.20;7.32;;;-3.50;99.90;;;;;;5009374;28;20045;-71
2022/12/14 03:29:08;;;;;;;8.10;4.53;;;-3.40;99.90;;;;;;5015543;28;20124;-71
2022/12/14 03:31:44;;;;;;;5.50;4.15;;;-3.40;99.90;;;;;;5010842;28;20445;-71
2022/12/14 03:34:13;;;;;;;9.52;5.38;;;-3.40;99.90;;;;;;5023601;28;20176;-70
2022/12/14 03:36:48;;;;;;;7.20;4.10;;;-3.40;99.90;;;;;;5022225;28;20038;-69
2022/12/14 03:39:30;;;;;;;9.60;4.68;;;-3.40;99.90;;;;;;4992195;28;20049;-69
2022/12/14 03:42:03;;;;;;;18.77;4.15;;;-3.40;99.90;;;;;;5003317;28;20038;-69
2022/12/14 03:45:26;;;;;;;5.88;3.38;;;-3.40;99.90;;;;;;5014778;28;20457;-69
2022/12/14 03:48:04;;;;;;;6.13;4.38;;;-3.40;99.90;;;;;;4978737;28;20045;-70
2022/12/14 03:50:48;;;;;;;5.93;2.72;;;-3.40;99.90;;;;;;4992681;28;20041;-70
2022/12/14 03:53:24;;;;;;;6.80;4.05;;;-3.40;99.90;;;;;;5008974;28;20042;-69
2022/12/14 03:56:12;;;;;;;10.75;5.65;;;-3.40;99.90;;;;;;5011802;28;20046;-70
2022/12/14 03:58:47;;;;;;;5.65;3.53;;;-3.40;99.90;;;;;;5021227;28;20045;-69
2022/12/14 04:01:24;;;;;;;7.18;2.95;;;-3.50;99.90;;;;;;5020520;28;20049;-69
2022/12/14 04:04:03;;;;;;;9.85;5.00;;;-3.50;99.90;;;;;;5013145;28;20444;-69
2022/12/14 04:06:39;;;;;;;14.65;6.43;;;-3.60;99.90;;;;;;5024970;28;20438;-69
2022/12/14 04:09:18;;;;;;;7.28;4.85;;;-3.60;99.90;;;;;;5002577;28;20038;-70
2022/12/14 04:21:02;;;;;;;10.48;4.07;;;-3.60;99.90;;;;;;5102253;28;20067;-71
2022/12/14 04:26:25;;;;;;;6.32;4.25;;;-3.50;99.90;;;;;;5093897;28;20040;-71
2022/12/14 04:31:46;;;;;;;12.32;5.82;;;-3.60;99.90;;;;;;5101199;28;20123;-71
2022/12/14 04:34:15;;;;;;;10.88;5.70;;;-3.60;99.90;;;;;;5121611;27;20048;-72
2022/12/14 04:36:47;;;;;;;11.65;5.70;;;-3.70;99.90;;;;;;5127976;27;20032;-71
2022/12/14 04:39:21;;;;;;;9.85;5.57;;;-3.70;99.90;;;;;;5120118;27;20474;-72
2022/12/14 04:41:52;;;;;;;9.80;4.82;;;-3.70;99.90;;;;;;5067367;28;20486;-72
2022/12/14 04:44:28;;;;;;;6.05;3.15;;;-3.70;99.90;;;;;;5084324;28;20036;-72
2022/12/14 04:46:56;;;;;;;8.07;4.45;;;-3.80;99.90;;;;;;5117347;28;20066;-72
2022/12/14 04:49:53;;;;;;;6.00;3.80;;;-3.80;99.90;;;;;;5137058;27;20043;-71
2022/12/14 04:52:31;;;;;;;12.32;4.70;;;-3.80;99.90;;;;;;5066124;28;20047;-71
2022/12/14 04:55:03;;;;;;;8.57;5.18;;;-3.90;99.90;;;;;;5099620;28;20040;-72
2022/12/14 04:57:31;;;;;;;11.60;3.25;;;-3.90;99.90;;;;;;5117722;27;20039;-72
2022/12/14 04:59:58;;;;;;;16.85;4.05;;;-3.90;99.90;;;;;;5123798;27;20040;-71
2022/12/14 05:03:00;;;;;;;7.20;4.28;;;-4.00;99.90;;;;;;5132853;27;20024;-71
2022/12/14 05:05:28;;;;;;;9.27;4.93;;;-4.00;99.90;;;;;;5080638;28;20043;-71
2022/12/14 05:08:04;;;;;;;5.32;4.78;;;-3.90;99.90;;;;;;5134312;27;20378;-71
2022/12/14 05:10:39;;;;;;;12.45;4.75;;;-3.90;99.90;;;;;;5082642;28;20039;-71
2022/12/14 05:13:19;;;;;;;3.93;3.13;;;-3.90;99.90;;;;;;5054927;28;20565;-71
2022/12/14 05:15:51;;;;;;;7.32;4.38;;;-3.90;99.90;;;;;;5079439;28;20286;-72
2022/12/14 05:18:17;;;;;;;11.15;4.90;;;-4.00;99.90;;;;;;5118994;28;20035;-72
2022/12/14 05:20:45;;;;;;;13.10;4.63;;;-4.00;99.90;;;;;;5116073;28;20032;-72
2022/12/14 05:23:11;;;;;;;10.05;4.20;;;-4.10;99.90;;;;;;5098141;28;20053;-72
2022/12/14 05:25:37;;;;;;;10.68;4.22;;;-4.10;99.90;;;;;;5121683;27;20041;-72
2022/12/14 05:28:02;;;;;;;9.50;4.13;;;-4.10;99.90;;;;;;5067973;28;20123;-71
2022/12/14 05:30:28;;;;;;;8.20;5.80;;;-4.10;99.90;;;;;;5075076;28;20040;-72
2022/12/14 05:32:54;;;;;;;9.10;4.95;;;-4.10;99.90;;;;;;5077972;28;20079;-71
2022/12/14 05:35:20;;;;;;;13.05;3.70;;;-4.10;99.90;;;;;;5072790;28;20036;-72
2022/12/14 05:37:46;;;;;;;8.95;5.55;;;-4.10;99.90;;;;;;5078069;28;20040;-71
2022/12/14 05:40:12;;;;;;;9.40;5.55;;;-4.10;99.90;;;;;;5110584;27;20049;-72
2022/12/14 05:42:37;;;;;;;13.02;6.55;;;-4.00;99.90;;;;;;5082520;28;20048;-71
2022/12/14 05:45:03;;;;;;;7.03;4.45;;;-4.00;99.90;;;;;;5116576;27;20037;-71
2022/12/14 05:47:29;;;;;;;5.10;3.17;;;-3.90;99.90;;;;;;5104602;28;20108;-72
2022/12/14 05:49:55;;;;;;;8.85;5.82;;;-3.90;99.90;;;;;;5074483;28;20123;-71
2022/12/14 05:52:22;;;;;;;8.52;3.17;;;-4.00;99.90;;;;;;5083593;28;20414;-71
2022/12/14 05:54:48;;;;;;;10.07;4.95;;;-4.00;99.90;;;;;;5075607;28;20111;-72
2022/12/14 05:57:14;;;;;;;7.47;4.70;;;-4.00;99.90;;;;;;5074440;28;20558;-71
2022/12/14 05:59:39;;;;;;;6.43;3.95;;;-4.00;99.90;;;;;;5066579;28;20082;-72
2022/12/14 06:02:05;;;;;;;10.50;3.72;;;-3.90;99.90;;;;;;5075345;28;20117;-71
2022/12/14 06:04:31;;;;;;;10.20;5.88;;;-3.90;99.90;;;;;;5076447;28;20505;-71
2022/12/14 06:06:57;;;;;;;10.77;5.32;;;-3.80;99.90;;;;;;5089854;28;20048;-71
2022/12/14 06:09:23;;;;;;;10.38;5.30;;;-3.80;99.90;;;;;;5070823;28;20043;-71
2022/12/14 06:11:51;;;;;;;11.25;5.55;;;-3.80;99.90;;;;;;5079915;28;20044;-71
2022/12/14 06:14:17;;;;;;;10.18;5.30;;;-3.80;99.90;;;;;;5073373;28;20487;-72
2022/12/14 06:16:45;;;;;;;16.88;4.72;;;-3.70;99.90;;;;;;5100124;27;20075;-71
2022/12/14 06:19:11;;;;;;;8.32;4.60;;;-3.70;99.90;;;;;;5069454;28;20039;-71
2022/12/14 06:21:39;;;;;;;6.40;4.45;;;-3.70;99.90;;;;;;5068553;28;20028;-71
2022/12/14 06:24:06;;;;;;;19.13;6.13;;;-3.80;99.90;;;;;;5103512;28;20588;-71
2022/12/14 06:26:35;;;;;;;8.13;7.32;;;-3.80;99.90;;;;;;5069040;28;20131;-71
2022/12/14 06:29:01;;;;;;;9.52;3.92;;;-3.80;99.90;;;;;;5104976;27;20444;-72
2022/12/14 06:31:29;;;;;;;8.65;4.78;;;-3.70;99.90;;;;;;5071241;28;20036;-71
2022/12/14 06:33:58;;;;;;;9.50;5.72;;;-3.70;99.90;;;;;;5069085;28;20036;-71
2022/12/14 06:36:27;;;;;;;10.10;4.95;;;-3.70;99.90;;;;;;5102235;28;20037;-71
2022/12/14 06:38:54;;;;;;;9.23;4.97;;;-3.70;99.90;;;;;;5065472;28;20048;-72
2022/12/14 06:41:21;;;;;;;8.93;5.45;;;-3.70;99.90;;;;;;5087149;28;20127;-72
2022/12/14 06:43:47;;;;;;;7.28;6.43;;;-3.70;99.90;;;;;;5065931;28;20041;-71
2022/12/14 06:46:15;;;;;;;7.45;4.90;;;-3.70;99.90;;;;;;5051730;28;20043;-71
2022/12/14 06:48:41;;;;;;;6.45;5.07;;;-3.70;99.90;;;;;;5102352;27;20041;-71
2022/12/14 06:51:07;;;;;;;9.48;5.57;;;-3.60;99.90;;;;;;5105155;27;20046;-71
2022/12/14 06:53:33;;;;;;;15.27;5.82;;;-3.60;99.90;;;;;;5046462;28;20041;-71
2022/12/14 06:56:09;;;;;;;10.15;5.45;;;-3.70;99.90;;;;;;5092156;28;20036;-71
2022/12/14 06:58:35;;;;;;;15.73;4.07;;;-3.60;99.90;;;;;;5076514;28;20041;-68
2022/12/14 07:01:06;;;;;;;6.55;5.43;;;-3.60;99.90;;;;;;5061307;28;20037;-69
2022/12/14 07:03:32;;;;;;;13.93;6.00;;;-3.70;99.90;;;;;;5097425;27;20044;-68
2022/12/14 07:05:59;;;;;;;9.48;6.40;;;-3.60;99.90;;;;;;5092565;27;20401;-69
2022/12/14 07:08:25;;;;;;;4.88;4.28;;;-3.70;99.90;;;;;;5099323;27;20041;-71
2022/12/14 07:10:52;;;;;;;5.70;3.75;;;-3.60;99.90;;;;;;5093786;27;20059;-71
2022/12/14 07:13:18;;;;;;;9.45;5.28;;;-3.60;99.90;;;;;;5060494;28;20047;-71
2022/12/14 07:15:49;;;;;;;8.98;5.28;;;-3.60;99.90;;;;;;5092247;28;20040;-70
2022/12/14 07:18:14;;;;;;;16.15;6.13;;;-3.60;99.90;;;;;;5059496;28;20044;-70
2022/12/14 07:20:40;;;;;;;7.35;5.18;;;-3.60;99.90;;;;;;5064243;28;20028;-70
2022/12/14 07:23:06;;;;;;;7.97;5.30;;;-3.70;99.90;;;;;;5064197;28;20048;-70
2022/12/14 07:25:31;;;;;;;8.48;3.72;;;-3.60;99.90;;;;;;5094041;28;20048;-69
2022/12/14 07:27:57;;;;;;;12.25;5.63;;;-3.60;99.90;;;;;;5058570;28;20028;-69
2022/12/14 07:30:22;;;;;;;9.25;4.50;;;-3.60;99.90;;;;;;5091388;28;20649;-69
2022/12/14 07:32:48;;;;;;;6.97;3.55;;;-3.60;99.90;;;;;;5061210;28;20041;-70
2022/12/14 07:35:13;;;;;;;10.77;5.32;;;-3.60;99.90;;;;;;5063574;28;20029;-70
2022/12/14 07:37:39;;;;;;;8.20;5.20;;;-3.50;99.90;;;;;;5064401;28;20440;-70
2022/12/14 07:40:05;;;;;;;10.77;6.20;;;-3.60;99.90;;;;;;5078152;28;20941;-70
2022/12/14 07:42:31;;;;;;;11.98;5.03;;;-3.60;99.90;;;;;;5062456;28;20119;-70
2022/12/14 07:44:57;;;;;;;9.85;5.43;;;-3.60;99.90;;;;;;5095964;27;20119;-70
2022/12/14 07:47:22;;;;;;;6.10;3.63;;;-3.60;99.90;;;;;;5043162;28;20131;-69
2022/12/14 07:49:48;;;;;;;7.05;3.65;;;-3.70;99.90;;;;;;5095561;28;20044;-70
2022/12/14 07:52:13;;;;;;;13.70;4.53;;;-3.70;99.90;;;;;;5094116;28;20040;-69
2022/12/14 07:54:39;;;;;;;7.05;3.80;;;-3.70;99.90;;;;;;5099459;28;20119;-70
2022/12/14 07:57:04;;;;;;;5.25;3.35;;;-3.70;99.90;;;;;;5109666;27;20127;-70
2022/12/14 07:59:30;;;;;;;10.45;5.90;;;-3.70;99.90;;;;;;5093944;28;20041;-70
2022/12/14 08:01:56;;;;;;;10.23;4.75;;;-3.60;99.90;;;;;;5053371;28;20041;-70
2022/12/14 08:04:21;;;;;;;8.40;3.92;;;-3.60;99.90;;;;;;5094319;28;20040;-70
2022/12/14 08:06:48;;;;;;;9.80;4.70;;;-3.60;99.90;;;;;;5058899;28;20036;-70
2022/12/14 08:09:14;;;;;;;6.90;3.40;;;-3.60;99.90;;;;;;5060453;28;20048;-70
2022/12/14 08:11:40;;;;;;;11.20;4.22;;;-3.70;99.90;;;;;;5093446;28;20563;-70
2022/12/14 08:14:16;;;;;;;8.38;4.07;;;-3.70;99.90;;;;;;5056510;28;20045;-70
2022/12/14 08:16:41;;;;;;;;;;;-3.70;99.90;;;;;;5092271;28;20130;-70
2022/12/14 08:19:08;;;;;;;10.82;4.25;;;-3.70;99.90;;;;;;5044949;28;19920;-70
2022/12/14 08:21:34;;;;;;;16.00;5.03;;;-3.70;99.90;;;;;;5059334;28;20090;-70
2022/12/14 08:24:00;;;;;;;10.48;3.75;;;-3.70;99.90;;;;;;5092834;28;20041;-70
2022/12/14 08:26:26;;;;;;;10.80;6.88;;;-3.80;99.90;;;;;;5044542;28;20045;-70
2022/12/14 08:28:53;;;;;;;7.28;4.15;;;-3.80;99.90;;;;;;5058810;28;20044;-70
2022/12/14 08:31:22;;;;;;;4.63;3.10;;;-3.70;99.90;;;;;;5059562;28;20301;-70
2022/12/14 08:33:48;;;;;;;11.50;3.97;;;-3.70;99.90;;;;;;5076736;28;20163;-70
2022/12/14 08:36:17;;;;;;;8.40;5.22;;;-3.80;99.90;;;;;;5076496;28;20123;-70
2022/12/14 08:38:43;;;;;;;7.95;3.20;;;-3.80;99.90;;;;;;5074634;28;20044;-70
2022/12/14 08:41:13;;;;;;;9.60;3.95;;;-3.80;99.90;;;;;;5052254;28;20047;-70
2022/12/14 08:43:39;;;;;;;14.70;5.25;;;-3.80;99.90;;;;;;5053857;28;20037;-70
2022/12/14 08:46:07;;;;;;;10.68;3.90;;;-3.80;99.90;;;;;;5057062;28;20091;-70
2022/12/14 08:48:33;;;;;;;12.43;6.30;;;-3.70;99.90;;;;;;5058412;28;20083;-70
2022/12/14 08:51:07;;;;;;;11.85;5.65;;;-3.60;99.90;;;;;;5062115;28;20064;-70
2022/12/14 08:53:33;;;;;;;4.57;2.75;;;-3.60;99.90;;;;;;5058718;28;20059;-70
2022/12/14 08:56:04;;;;;;;4.75;3.88;;;-3.50;99.90;;;;;;5058795;28;20279;-70
2022/12/14 08:58:30;;;;;;;14.30;6.00;;;-3.40;99.90;;;;;;5061721;28;20049;-70
2022/12/14 09:01:04;;;;;;;15.20;4.65;;;-3.30;99.90;;;;;;5061185;28;20047;-70
2022/12/14 09:03:30;;;;;;;9.32;4.43;;;-3.30;99.90;;;;;;5065042;28;20310;-70
2022/12/14 09:05:59;;;;;;;11.63;6.75;;;-3.20;99.90;;;;;;5061861;28;20079;-70
2022/12/14 09:08:25;;;;;;;8.75;5.25;;;-3.20;99.90;;;;;;5098382;28;20497;-70
2022/12/14 09:10:51;;;;;;;7.57;4.80;;;-3.10;99.90;;;;;;5094611;28;20051;-70
2022/12/14 09:13:17;;;;;;;6.25;3.28;;;-3.20;99.90;;;;;;5079641;28;20052;-70
2022/12/14 09:15:43;;;;;;;9.88;4.07;;;-3.10;99.90;;;;;;5074397;28;20119;-70
2022/12/14 09:18:08;;;;;;;5.43;3.58;;;-3.00;99.90;;;;;;5083298;28;20667;-70
2022/12/14 09:20:34;;;;;;;13.10;5.15;;;-3.00;99.90;;;;;;5090141;28;20064;-70
2022/12/14 09:23:00;;;;;;;10.80;3.85;;;-3.00;99.90;;;;;;5052776;28;20413;-70
2022/12/14 09:25:25;;;;;;;5.35;2.78;;;-3.00;99.90;;;;;;5072092;28;20036;-70
2022/12/14 09:27:51;;;;;;;8.38;4.82;;;-2.90;99.90;;;;;;5058712;28;20064;-70
2022/12/14 09:30:16;;;;;;;12.07;5.97;;;-2.90;99.90;;;;;;5103893;27;20033;-70
2022/12/14 09:32:45;;;;;;;11.10;5.60;;;-2.80;99.90;;;;;;5068073;28;20379;-70
2022/12/14 09:35:11;;;;;;;7.38;3.47;;;-2.80;99.90;;;;;;5060596;28;20044;-70
2022/12/14 09:37:37;;;;;;;15.40;5.85;;;-2.80;99.90;;;;;;5060402;28;20420;-71
2022/12/14 09:40:04;;;;;;;8.60;4.57;;;-2.80;99.90;;;;;;5067629;28;20052;-70
2022/12/14 09:42:57;;;;;;;7.80;5.45;;;-2.70;99.90;;;;;;5073380;28;20036;-70
2022/12/14 09:45:31;;;;;;;15.38;6.53;;;-2.70;99.90;;;;;;5071363;28;20126;-70
2022/12/14 09:48:03;;;;;;;12.15;5.18;;;-2.70;99.90;;;;;;5064480;28;20068;-70
2022/12/14 09:50:29;;;;;;;9.88;3.90;;;-2.60;99.90;;;;;;5056197;28;20044;-70
2022/12/14 09:52:58;;;;;;;13.63;4.65;;;-2.60;99.90;;;;;;5061975;28;20040;-70
2022/12/14 09:55:40;;;;;;;9.05;4.32;;;-2.60;99.90;;;;;;5057250;28;20089;-71
2022/12/14 09:58:19;;;;;;;16.25;5.63;;;-2.50;99.90;;;;;;5057504;28;20138;-70
2022/12/14 10:01:11;;;;;;;14.30;4.35;;;-2.50;99.90;;;;;;5061380;28;20693;-70
2022/12/14 10:03:48;;;;;;;9.85;5.25;;;-2.50;99.90;;;;;;5063826;28;20051;-70
2022/12/14 10:06:20;;;;;;;10.13;3.90;;;-2.50;99.90;;;;;;5079091;28;20543;-71
2022/12/14 10:08:57;;;;;;;6.82;4.32;;;-2.40;99.90;;;;;;5061214;28;20260;-70
2022/12/14 10:11:32;;;;;;;10.65;4.13;;;-2.40;99.90;;;;;;5059745;28;20067;-70
2022/12/14 10:14:33;;;;;;;10.73;4.45;;;-2.40;99.90;;;;;;5063223;28;20057;-71
2022/12/14 10:17:08;;;;;;;6.78;6.10;;;-2.40;99.90;;;;;;5077649;28;20079;-71
2022/12/14 10:19:50;;;;;;;5.00;3.13;;;-2.30;99.90;;;;;;5064808;28;20055;-71
2022/12/14 10:22:20;;;;;;;8.82;2.50;;;-2.40;99.90;;;;;;5062368;28;20033;-71
2022/12/14 10:24:50;;;;;;;10.73;5.53;;;-2.30;99.90;;;;;;5096139;28;20167;-71
2022/12/14 10:27:35;;;;;;;10.63;6.95;;;-2.30;99.90;;;;;;5060950;28;20044;-71
2022/12/14 10:30:05;;;;;;;17.15;6.82;;;-2.30;99.90;;;;;;5059809;28;20497;-71
2022/12/14 10:32:36;;;;;;;5.53;3.47;;;-2.30;99.90;;;;;;5096670;28;20037;-71
2022/12/14 10:35:24;;;;;;;7.68;4.57;;;-2.20;99.90;;;;;;5060381;28;20040;-71
2022/12/14 10:37:59;;;;;;;6.55;3.60;;;-2.20;99.90;;;;;;5063048;28;20086;-71
2022/12/14 10:40:29;;;;;;;9.30;5.15;;;-2.20;99.90;;;;;;5061116;28;20043;-71
2022/12/14 10:43:18;;;;;;;6.53;4.93;;;-2.10;99.90;;;;;;5096435;27;20406;-71
2022/12/14 10:46:09;;;;;;;6.28;3.83;;;-2.10;99.90;;;;;;5061747;28;20055;-71
2022/12/14 10:48:48;;;;;;;13.52;4.47;;;-2.10;99.90;;;;;;5061053;28;20079;-71
2022/12/14 10:51:21;;;;;;;14.63;4.72;;;-2.10;99.90;;;;;;5061822;28;20044;-71
2022/12/14 10:53:52;;;;;;;7.35;4.00;;;-2.10;99.90;;;;;;5061955;28;20032;-71
2022/12/14 10:56:40;;;;;;;6.28;3.47;;;-2.10;99.90;;;;;;5076599;28;20133;-71
2022/12/14 10:59:25;;;;;;;11.82;4.78;;;-2.10;99.90;;;;;;5064615;28;20516;-71
2022/12/14 11:02:02;;;;;;;6.15;3.67;;;-2.10;99.90;;;;;;5058663;28;20037;-71
2022/12/14 11:04:33;;;;;;;12.45;5.18;;;-2.00;99.90;;;;;;5092547;28;20047;-70
2022/12/14 11:07:01;;;;;;;12.63;5.30;;;-2.00;99.90;;;;;;5060225;28;20357;-71
2022/12/14 11:09:27;;;;;;;18.60;5.50;;;-1.90;99.90;;;;;;5054565;28;20068;-70
2022/12/14 11:12:11;;;;;;;10.02;3.58;;;-1.90;99.90;;;;;;5050929;28;20057;-70
2022/12/14 11:14:40;;;;;;;11.93;5.95;;;-1.90;99.90;;;;;;5090573;27;20052;-70
2022/12/14 11:17:36;;;;;;;12.85;5.63;;;-1.90;99.90;;;;;;5089451;28;20064;-70
2022/12/14 11:20:15;;;;;;;8.55;3.28;;;-1.90;99.90;;;;;;5058524;28;20469;-70
2022/12/14 11:22:47;;;;;;;10.23;4.55;;;-1.80;99.90;;;;;;5055293;28;20036;-71
2022/12/14 11:25:38;;;;;;;7.30;4.43;;;-1.70;99.90;;;;;;5092277;28;20037;-71
2022/12/14 11:28:23;;;;;;;6.03;4.30;;;-1.70;99.90;;;;;;5078715;28;20125;-71
2022/12/14 11:31:02;;;;;;;7.78;4.70;;;-1.70;99.90;;;;;;5098442;27;20031;-70
2022/12/14 11:33:38;;;;;;;7.78;2.95;;;-1.70;99.90;;;;;;5059502;28;20051;-70
2022/12/14 11:36:06;;;;;;;10.60;5.28;;;-1.70;99.90;;;;;;5090028;28;20078;-70
2022/12/14 11:38:31;;;;;;;6.03;4.68;;;-1.60;99.90;;;;;;5054648;28;20177;-70
2022/12/14 11:41:01;;;;;;;7.03;4.00;;;-1.60;99.90;;;;;;5060355;28;20550;-70
2022/12/14 11:43:39;;;;;;;9.27;5.72;;;-1.50;99.90;;;;;;5058917;28;20056;-70
2022/12/14 11:46:05;;;;;;;7.95;4.63;;;-1.50;99.90;;;;;;5041914;28;20146;-70
2022/12/14 11:48:30;;;;;;;9.90;4.57;;;-1.50;99.90;;;;;;5042298;28;20570;-70
2022/12/14 11:51:11;;;;;;;7.88;5.00;;;-1.50;99.90;;;;;;5043559;28;20082;-71
2022/12/14 11:53:37;;;;;;;8.63;3.05;;;-1.40;99.90;;;;;;5052438;28;20051;-70
2022/12/14 11:56:06;;;;;;;8.45;4.00;;;-1.40;99.90;;;;;;5057139;28;20040;-70
2022/12/14 11:58:36;;;;;;;6.72;4.05;;;-1.40;99.90;;;;;;5086600;27;21609;-71
2022/12/14 12:01:14;;;;;;;6.63;3.47;;;-1.30;99.90;;;;;;5061250;28;20093;-70
2022/12/14 12:03:49;;;;;;;9.45;5.63;;;-1.30;99.90;;;;;;5090295;28;20429;-70
2022/12/14 12:06:23;;;;;;;6.07;3.95;;;-1.30;99.90;;;;;;5048577;28;20044;-70
2022/12/14 12:08:55;;;;;;;4.78;3.30;;;-1.30;99.90;;;;;;5086832;27;20044;-71
2022/12/14 12:11:25;;;;;;;6.40;3.50;;;-1.30;99.90;;;;;;5057777;28;20407;-71
2022/12/14 12:13:56;;;;;;;7.03;4.38;;;-1.30;99.90;;;;;;5077774;28;20533;-70
2022/12/14 12:16:24;;;;;;;8.05;4.30;;;-1.20;99.90;;;;;;5054784;28;20024;-70
2022/12/14 12:19:05;;;;;;;5.20;3.22;;;-1.20;99.90;;;;;;5059137;28;20025;-70
2022/12/14 12:21:34;;;;;;;4.93;3.30;;;-1.20;99.90;;;;;;5052739;28;20446;-70
2022/12/14 12:24:06;;;;;;;8.45;3.40;;;-1.20;99.90;;;;;;5086904;28;20721;-70
2022/12/14 12:26:40;;;;;;;9.65;5.55;;;-1.10;99.90;;;;;;5053571;28;20042;-70
2022/12/14 12:29:16;;;;;;;11.73;5.03;;;-1.10;99.90;;;;;;5058592;28;20131;-70
2022/12/14 12:32:02;;;;;;;8.98;3.78;;;-1.10;99.90;;;;;;5056953;28;20039;-70
2022/12/14 12:34:50;;;;;;;8.80;5.22;;;-1.10;99.90;;;;;;5091151;28;20064;-67
2022/12/14 12:37:41;;;;;;;5.82;3.85;;;-1.10;99.90;;;;;;5049355;28;20054;-70
2022/12/14 12:40:21;;;;;;;6.70;4.35;;;-1.10;99.90;;;;;;5060226;28;20036;-70
2022/12/14 12:43:00;;;;;;;5.75;3.00;;;-1.00;99.90;;;;;;5059494;28;20040;-68
2022/12/14 12:45:36;;;;;;;5.97;2.83;;;-1.10;99.90;;;;;;5063036;28;20031;-73
2022/12/14 12:48:30;;;;;;;9.15;4.40;;;-1.10;99.90;;;;;;5094067;27;20477;-70
2022/12/14 12:51:13;;;;;;;4.75;2.45;;;-1.00;99.90;;;;;;5063780;28;20041;-70
2022/12/14 12:53:45;;;;;;;7.43;3.42;;;-1.10;99.90;;;;;;5094215;28;20072;-68
2022/12/14 12:56:19;;;;;;;8.95;5.15;;;-1.10;99.90;;;;;;5088868;28;20036;-70
2022/12/14 12:58:46;;;;;;;7.35;3.05;;;-1.10;99.90;;;;;;5069767;28;20028;-70
2022/12/14 13:01:34;;;;;;;11.23;3.92;;;-1.00;99.90;;;;;;5072610;28;20164;-70
2022/12/14 13:04:10;;;;;;;4.43;3.72;;;-1.00;99.90;;;;;;5097556;27;20075;-70
2022/12/14 13:06:40;;;;;;;;;;;-1.10;99.90;;;;;;5120244;27;20042;-70
2022/12/14 13:09:18;;;;;;;3.67;2.75;;;-1.00;99.90;;;;;;5074604;28;20377;-70
2022/12/14 13:11:44;;;;;;;8.13;2.40;;;-1.00;99.90;;;;;;5107607;27;20551;-68
2022/12/14 13:14:38;;;;;;;3.95;2.78;;;-1.00;99.90;;;;;;5069642;28;20102;-68
2022/12/14 13:17:06;;;;;;;5.93;3.35;;;-1.00;99.90;;;;;;5096865;27;20109;-69
2022/12/14 13:19:46;;;;;;;8.25;3.38;;;-1.00;99.90;;;;;;5068879;28;20490;-69
2022/12/14 13:22:16;;;;;;;6.70;3.78;;;-1.00;99.90;;;;;;5093887;27;20059;-69
2022/12/14 13:24:47;;;;;;;10.50;3.58;;;-1.00;99.90;;;;;;5075643;28;20466;-69